createdAt,value
2018-12-19T00:00:00.760Z,101373.37
2018-12-19T00:02:30.292Z,101378.77
2018-12-19T00:05:00.027Z,101380.61
2018-12-19T00:07:29.554Z,101379.56
2018-12-19T00:09:59.116Z,101368.72
2018-12-19T00:12:28.642Z,101370.36
2018-12-19T00:14:58.180Z,101326.84
2018-12-19T00:17:27.771Z,101372.73
2018-12-19T00:19:58.338Z,101359.87
2018-12-19T00:22:28.174Z,101352.98
2018-12-19T00:24:57.962Z,101270.59
2018-12-19T00:27:27.514Z,101347.30
2018-12-19T00:29:57.249Z,101338.44
2018-12-19T00:32:26.882Z,101338.27
2018-12-19T00:34:56.450Z,101286.73
2018-12-19T00:37:26.181Z,101329.32
2018-12-19T00:39:55.757Z,101315.69
2018-12-19T00:42:25.284Z,101309.91
2018-12-19T00:44:54.853Z,101313.74
2018-12-19T00:47:24.385Z,101315.25
2018-12-19T00:53:00.773Z,101309.52
2018-12-19T00:55:30.211Z,101312.00
2018-12-19T00:57:59.634Z,101312.25
2018-12-19T01:00:29.099Z,101314.34
2018-12-19T01:02:58.577Z,101301.31
2018-12-19T01:05:27.966Z,101308.95
2018-12-19T01:07:57.406Z,101310.16
2018-12-19T01:10:26.826Z,101297.34
2018-12-19T01:12:56.236Z,101292.31
2018-12-19T01:15:25.742Z,101290.50
2018-12-19T01:17:55.120Z,101289.97
2018-12-19T01:20:24.536Z,101279.94
2018-12-19T01:22:54.005Z,101277.09
2018-12-19T01:25:23.569Z,101278.30
2018-12-19T01:27:52.969Z,101277.07
2018-12-19T01:30:22.553Z,101274.01
2018-12-19T01:32:51.945Z,101267.81
2018-12-19T01:35:21.346Z,101257.39
2018-12-19T01:37:50.769Z,101246.92
2018-12-19T01:40:20.205Z,101255.00
2018-12-19T01:42:49.685Z,101257.67
2018-12-19T01:45:19.805Z,101244.26
2018-12-19T01:47:49.697Z,101251.53
2018-12-19T01:50:19.512Z,101248.59
2018-12-19T01:52:48.973Z,101245.56
2018-12-19T01:55:18.478Z,101239.43
2018-12-19T01:57:47.971Z,101243.14
2018-12-19T02:00:17.666Z,101239.55
2018-12-19T02:02:47.228Z,101235.97
2018-12-19T02:05:16.597Z,101228.41
2018-12-19T02:07:46.029Z,101215.69
2018-12-19T02:10:16.772Z,101212.27
2018-12-19T02:12:46.234Z,101218.58
2018-12-19T02:15:15.705Z,101211.94
2018-12-19T02:17:45.268Z,101203.04
2018-12-19T02:20:15.229Z,101196.81
2018-12-19T02:22:44.712Z,101185.34
2018-12-19T02:25:14.153Z,101178.63
2018-12-19T02:27:43.611Z,101172.69
2018-12-19T02:30:13.293Z,101166.55
2018-12-19T02:32:42.788Z,101162.64
2018-12-19T02:35:12.274Z,101147.73
2018-12-19T02:37:41.867Z,101150.61
2018-12-19T02:40:11.342Z,101149.73
2018-12-19T02:42:40.839Z,101141.96
2018-12-19T02:48:16.592Z,101147.02
2018-12-19T02:50:46.162Z,101133.09
2018-12-19T02:53:15.866Z,101130.44
2018-12-19T02:55:45.300Z,101137.77
2018-12-19T02:58:14.833Z,101131.11
2018-12-19T03:03:39.970Z,101130.32
2018-12-19T03:06:09.378Z,101115.67
2018-12-19T03:08:38.843Z,101127.56
2018-12-19T03:11:08.820Z,101112.88
2018-12-19T03:13:38.486Z,101096.88
2018-12-19T03:16:07.916Z,101093.08
2018-12-19T03:18:37.414Z,101091.97
2018-12-19T03:21:06.901Z,101099.30
2018-12-19T03:23:36.332Z,101096.62
2018-12-19T03:26:05.814Z,101102.58
2018-12-19T03:28:35.367Z,101104.42
2018-12-19T03:31:04.908Z,101095.68
2018-12-19T03:33:34.394Z,101095.14
2018-12-19T03:36:03.909Z,101094.00
2018-12-19T03:38:33.419Z,101095.07
2018-12-19T03:41:02.989Z,101082.22
2018-12-19T03:43:32.480Z,101087.56
2018-12-19T03:46:01.940Z,101081.80
2018-12-19T03:48:37.410Z,101093.16
2018-12-19T03:51:06.820Z,101083.33
2018-12-19T03:53:36.255Z,101074.34
2018-12-19T03:56:05.810Z,101068.70
2018-12-19T03:58:35.216Z,101062.56
2018-12-19T04:01:04.724Z,101069.80
2018-12-19T04:03:34.625Z,101061.25
2018-12-19T04:06:04.254Z,101062.86
2018-12-19T04:08:33.695Z,101059.06
2018-12-19T04:11:03.277Z,101060.30
2018-12-19T04:13:32.710Z,101047.95
2018-12-19T04:16:02.273Z,101041.26
2018-12-19T04:18:31.682Z,101036.80
2018-12-19T04:21:01.143Z,101039.46
2018-12-19T04:23:30.639Z,101038.23
2018-12-19T04:26:00.056Z,101035.55
2018-12-19T04:28:29.455Z,101028.23
2018-12-19T04:30:58.876Z,101024.83
2018-12-19T04:33:28.268Z,101045.38
2018-12-19T04:35:57.719Z,101051.95
2018-12-19T04:38:27.446Z,101044.31
2018-12-19T04:40:56.913Z,101032.02
2018-12-19T04:43:26.316Z,101027.92
2018-12-19T04:45:55.811Z,101013.27
2018-12-19T04:48:25.665Z,101031.63
2018-12-19T04:50:55.272Z,101036.86
2018-12-19T04:53:24.751Z,101041.83
2018-12-19T04:55:54.256Z,101048.89
2018-12-19T04:58:23.745Z,101039.59
2018-12-19T05:00:53.361Z,101036.94
2018-12-19T05:03:22.737Z,101036.31
2018-12-19T05:05:52.182Z,101036.25
2018-12-19T05:08:21.660Z,101037.17
2018-12-19T05:10:51.041Z,101042.31
2018-12-19T05:13:20.439Z,101039.34
2018-12-19T05:15:49.993Z,101040.40
2018-12-19T05:18:19.393Z,101035.86
2018-12-19T05:20:49.189Z,101040.09
2018-12-19T05:26:19.191Z,101039.46
2018-12-19T05:29:02.362Z,101035.00
2018-12-19T05:31:42.829Z,101037.37
2018-12-19T05:34:13.946Z,101040.90
2018-12-19T05:36:44.247Z,101041.28
2018-12-19T05:39:13.802Z,101030.41
2018-12-19T05:41:43.517Z,101037.25
2018-12-19T05:57:16.138Z,101048.15
2018-12-19T05:59:45.513Z,101043.07
2018-12-19T06:02:14.879Z,101039.59
2018-12-19T06:04:44.268Z,101048.35
2018-12-19T06:07:13.652Z,101052.98
2018-12-19T06:09:43.055Z,101043.07
2018-12-19T06:12:12.668Z,101041.16
2018-12-19T06:14:42.239Z,101046.09
2018-12-19T06:17:11.632Z,101046.78
2018-12-19T06:19:41.161Z,101039.10
2018-12-19T06:22:10.544Z,101046.55
2018-12-19T06:27:36.672Z,101049.16
2018-12-19T06:30:06.857Z,101046.78
2018-12-19T06:32:36.417Z,101040.37
2018-12-19T06:35:06.212Z,101037.16
2018-12-19T06:37:35.692Z,101030.77
2018-12-19T06:40:06.898Z,101026.48
2018-12-19T06:42:45.752Z,101017.05
2018-12-19T06:45:15.129Z,101025.36
2018-12-19T06:47:44.517Z,101026.05
2018-12-19T06:50:13.922Z,101023.57
2018-12-19T06:52:43.294Z,101023.87
2018-12-19T06:55:12.652Z,101008.00
2018-12-19T06:57:42.080Z,101008.72
2018-12-19T07:00:11.673Z,101010.95
2018-12-19T07:02:41.096Z,101007.42
2018-12-19T07:05:10.526Z,101010.63
2018-12-19T07:07:39.869Z,101007.17
2018-12-19T07:10:09.485Z,101012.48
2018-12-19T07:12:53.843Z,101012.31
2018-12-19T07:15:23.400Z,101011.01
2018-12-19T07:21:09.250Z,100999.13
2018-12-19T07:23:50.797Z,100996.38
2018-12-19T07:26:20.195Z,101007.33
2018-12-19T07:28:49.601Z,101001.59
2018-12-19T07:31:18.982Z,100988.56
2018-12-19T07:33:48.421Z,100996.97
2018-12-19T07:36:17.794Z,100994.59
2018-12-19T07:38:47.206Z,100995.69
2018-12-19T07:41:16.658Z,100997.81
2018-12-19T07:43:46.056Z,101006.12
2018-12-19T07:46:19.770Z,100996.99
2018-12-19T07:48:47.020Z,101006.50
2018-12-19T07:51:16.431Z,101002.03
2018-12-19T07:53:45.874Z,101000.20
2018-12-19T07:56:16.210Z,100999.14
2018-12-19T07:58:45.669Z,100987.40
2018-12-19T08:01:15.153Z,101005.88
2018-12-19T08:03:44.577Z,100994.99
2018-12-19T08:06:14.121Z,100998.53
2018-12-19T08:08:43.503Z,100988.76
2018-12-19T08:14:09.741Z,100992.30
2018-12-19T08:16:39.239Z,100999.34
2018-12-19T08:19:08.801Z,100991.99
2018-12-19T08:21:38.377Z,100990.83
2018-12-19T08:24:07.935Z,100990.31
2018-12-19T08:26:37.646Z,100986.30
2018-12-19T08:29:07.125Z,100999.05
2018-12-19T08:31:36.597Z,101007.86
2018-12-19T08:34:06.784Z,101004.31
2018-12-19T08:36:36.334Z,101008.16
2018-12-19T08:39:08.182Z,101018.38
2018-12-19T08:41:39.237Z,101027.58
2018-12-19T08:44:08.750Z,100980.73
2018-12-19T08:46:38.265Z,101030.72
2018-12-19T08:49:07.725Z,101036.09
2018-12-19T08:51:37.225Z,101033.87
2018-12-19T08:54:07.384Z,101033.08
2018-12-19T08:56:36.913Z,101036.97
2018-12-19T08:59:06.436Z,101038.36
2018-12-19T09:01:36.195Z,101027.69
2018-12-19T09:04:05.789Z,101025.86
2018-12-19T09:06:35.281Z,101030.45
2018-12-19T09:09:07.484Z,101036.27
2018-12-19T09:11:37.107Z,101036.83
2018-12-19T09:14:06.925Z,101037.58
2018-12-19T09:16:36.386Z,101039.89
2018-12-19T09:19:06.140Z,101041.95
2018-12-19T09:21:37.009Z,101051.27
2018-12-19T09:24:35.211Z,101047.06
2018-12-19T09:27:06.362Z,101048.09
2018-12-19T09:29:36.175Z,101047.17
2018-12-19T09:32:05.806Z,101028.44
2018-12-19T09:34:35.195Z,101029.48
2018-12-19T09:37:05.080Z,101030.37
2018-12-19T09:39:34.952Z,101020.79
2018-12-19T09:42:04.553Z,101018.70
2018-12-19T09:44:34.390Z,101017.73
2018-12-19T09:47:03.986Z,101026.16
2018-12-19T09:49:33.597Z,101021.95
2018-12-19T09:52:03.089Z,101009.67
2018-12-19T09:54:32.778Z,101005.76
2018-12-19T09:57:02.369Z,101015.31
2018-12-19T09:59:31.853Z,101018.09
2018-12-19T10:02:02.206Z,101006.91
2018-12-19T10:04:31.896Z,101007.14
2018-12-19T10:07:01.638Z,100996.22
2018-12-19T10:09:31.185Z,101004.16
2018-12-19T10:12:00.728Z,100997.45
2018-12-19T10:14:30.258Z,101001.36
2018-12-19T10:16:59.785Z,101002.74
2018-12-19T10:19:29.293Z,100999.87
2018-12-19T10:21:59.786Z,101010.20
2018-12-19T10:24:34.777Z,101002.11
2018-12-19T10:30:11.609Z,101003.42
2018-12-19T10:32:42.184Z,100989.43
2018-12-19T10:35:12.848Z,100992.41
2018-12-19T10:37:42.367Z,100989.62
2018-12-19T10:40:13.225Z,100991.41
2018-12-19T10:42:42.784Z,100983.53
2018-12-19T10:45:12.632Z,100988.38
2018-12-19T10:47:42.385Z,100988.38
2018-12-19T10:50:12.643Z,100978.38
2018-12-19T10:52:42.115Z,100982.58
2018-12-19T10:55:11.690Z,100980.50
2018-12-19T10:57:42.035Z,100981.50
2018-12-19T11:00:19.090Z,100983.00
2018-12-19T11:02:48.713Z,100914.63
2018-12-19T11:05:18.294Z,100984.27
2018-12-19T11:07:47.747Z,100984.98
2018-12-19T11:10:17.243Z,100985.15
2018-12-19T11:12:46.724Z,100982.61
2018-12-19T11:15:16.121Z,100982.73
2018-12-19T11:17:45.560Z,100977.28
2018-12-19T11:20:15.347Z,100972.80
2018-12-19T11:22:45.673Z,100976.13
2018-12-19T11:28:34.023Z,100973.05
2018-12-19T11:31:03.531Z,100971.28
2018-12-19T11:33:32.938Z,100972.35
2018-12-19T11:36:12.741Z,100971.66
2018-12-19T11:38:48.474Z,100973.16
2018-12-19T11:41:18.028Z,100971.05
2018-12-19T11:43:47.562Z,100969.84
2018-12-19T11:46:17.065Z,100965.40
2018-12-19T11:48:46.775Z,100963.16
2018-12-19T11:51:17.682Z,100966.56
2018-12-19T11:53:53.401Z,100967.72
2018-12-19T11:56:28.586Z,100966.14
2018-12-19T12:02:07.423Z,100966.70
2018-12-19T12:05:05.979Z,100961.11
2018-12-19T12:07:35.655Z,100958.06
2018-12-19T12:10:06.342Z,100951.75
2018-12-19T12:12:35.846Z,100957.27
2018-12-19T12:15:06.652Z,100958.50
2018-12-19T12:17:36.509Z,100959.31
2018-12-19T12:20:08.794Z,100958.28
2018-12-19T12:22:38.224Z,100962.50
2018-12-19T12:25:07.784Z,100965.11
2018-12-19T12:29:05.658Z,100958.44
2018-12-19T12:31:35.152Z,100955.03
2018-12-19T12:34:05.198Z,100955.67
2018-12-19T12:36:34.741Z,100956.34
2018-12-19T12:39:07.635Z,100947.42
2018-12-19T12:41:37.337Z,100953.82
2018-12-19T12:44:07.233Z,100948.77
2018-12-19T12:46:37.302Z,100948.19
2018-12-19T12:49:07.431Z,100942.61
2018-12-19T12:51:37.275Z,100945.37
2018-12-19T12:54:23.201Z,100950.23
2018-12-19T12:56:52.751Z,100952.64
2018-12-19T12:59:22.510Z,100943.70
2018-12-19T13:01:52.609Z,100947.69
2018-12-19T13:04:22.218Z,100938.53
2018-12-19T13:06:51.966Z,100942.75
2018-12-19T13:09:21.541Z,100942.14
2018-12-19T13:11:51.552Z,100935.52
2018-12-19T13:14:21.233Z,100943.31
2018-12-19T13:16:50.634Z,100943.03
2018-12-19T13:19:20.027Z,100950.76
2018-12-19T13:21:49.501Z,100946.67
2018-12-19T13:24:19.000Z,100948.44
2018-12-19T13:26:48.411Z,100949.45
2018-12-19T13:29:17.922Z,100941.03
2018-12-19T13:31:47.541Z,100942.34
2018-12-19T13:34:17.927Z,100942.17
2018-12-19T13:36:53.751Z,100942.34
2018-12-19T13:39:29.584Z,100943.94
2018-12-19T13:42:05.756Z,100886.20
2018-12-19T13:44:47.615Z,100944.88
2018-12-19T13:47:17.030Z,100950.39
2018-12-19T13:49:46.548Z,100953.01
2018-12-19T13:52:16.025Z,100950.11
2018-12-19T13:55:01.706Z,100943.48
2018-12-19T13:57:31.441Z,100949.66
2018-12-19T14:00:00.977Z,100946.30
2018-12-19T14:02:30.373Z,100952.76
2018-12-19T14:04:59.837Z,100943.52
2018-12-19T14:07:29.255Z,100944.34
2018-12-19T14:09:58.947Z,100939.03
2018-12-19T14:12:28.414Z,100944.09
2018-12-19T14:14:57.797Z,100938.74
2018-12-19T14:17:27.259Z,100944.83
2018-12-19T14:19:56.642Z,100945.56
2018-12-19T14:22:26.032Z,100954.18
2018-12-19T14:24:55.476Z,100944.45
2018-12-19T14:27:24.852Z,100949.32
2018-12-19T14:29:54.338Z,100948.47
2018-12-19T14:32:23.760Z,100951.94
2018-12-19T14:34:53.249Z,100950.46
2018-12-19T14:37:22.608Z,100953.05
2018-12-19T14:39:52.102Z,100956.23
2018-12-19T14:42:21.478Z,100950.06
2018-12-19T14:44:50.886Z,100948.47
2018-12-19T14:47:20.328Z,100947.16
2018-12-19T14:49:49.720Z,100950.62
2018-12-19T14:52:19.137Z,100959.95
2018-12-19T14:54:48.646Z,100961.09
2018-12-19T14:57:18.034Z,100960.44
2018-12-19T15:02:42.973Z,100971.36
2018-12-19T15:05:12.352Z,100978.27
2018-12-19T15:07:41.788Z,100964.56
2018-12-19T15:10:11.837Z,100973.32
2018-12-19T15:12:41.257Z,100966.90
2018-12-19T15:15:10.871Z,100966.16
2018-12-19T15:17:40.316Z,100972.13
2018-12-19T15:20:10.087Z,100976.22
2018-12-19T15:22:39.461Z,100969.88
2018-12-19T15:25:08.953Z,100974.29
2018-12-19T15:27:38.436Z,100977.56
2018-12-19T15:30:08.121Z,100978.91
2018-12-19T15:32:38.593Z,100982.42
2018-12-19T15:35:08.410Z,100978.58
2018-12-19T15:37:37.812Z,100984.22
2018-12-19T15:40:14.277Z,100987.48
2018-12-19T15:42:43.839Z,100984.42
2018-12-19T15:45:13.253Z,100982.09
2018-12-19T15:47:42.696Z,100969.73
2018-12-19T15:50:12.203Z,100971.24
2018-12-19T15:52:41.795Z,100968.88
2018-12-19T15:55:11.281Z,100980.58
2018-12-19T15:57:40.755Z,100967.23
2018-12-19T16:03:16.410Z,100971.72
2018-12-19T16:05:45.909Z,100971.23
2018-12-19T16:08:15.408Z,100974.45
2018-12-19T16:13:51.153Z,100982.67
2018-12-19T16:19:17.326Z,100979.03
2018-12-19T16:21:46.715Z,100975.36
2018-12-19T16:24:16.147Z,100971.23
2018-12-19T16:26:45.663Z,100975.16
2018-12-19T16:29:19.561Z,100977.05
2018-12-19T16:32:08.189Z,100976.30
2018-12-19T16:34:37.608Z,100972.45
2018-12-19T16:37:07.067Z,100979.37
2018-12-19T16:39:42.717Z,100970.89
2018-12-19T16:42:13.322Z,100970.14
2018-12-19T16:44:42.852Z,100967.13
2018-12-19T16:47:12.230Z,100974.44
2018-12-19T16:49:41.628Z,100975.38
2018-12-19T16:52:11.314Z,100974.61
2018-12-19T16:54:46.846Z,100974.24
2018-12-19T16:57:22.305Z,100971.64
2018-12-19T16:59:59.527Z,100969.94
2018-12-19T17:05:43.080Z,100968.28
2018-12-19T17:08:12.460Z,100973.79
2018-12-19T17:10:42.027Z,100970.80
2018-12-19T17:16:11.683Z,100961.72
2018-12-19T17:18:44.257Z,100960.95
2018-12-19T17:21:13.796Z,100961.52
2018-12-19T17:23:43.289Z,100960.41
2018-12-19T17:26:12.657Z,100957.44
2018-12-19T17:29:08.054Z,100955.55
2018-12-19T17:31:37.491Z,100962.01
2018-12-19T17:37:11.980Z,100944.60
2018-12-19T17:42:47.640Z,100948.70
2018-12-19T17:45:17.174Z,100946.65
2018-12-19T17:47:46.564Z,100940.42
2018-12-19T17:50:16.161Z,100930.66
2018-12-19T17:52:45.595Z,100935.90
2018-12-19T17:55:15.135Z,100937.68
2018-12-19T17:57:44.598Z,100935.72
2018-12-19T18:00:14.323Z,100941.16
2018-12-19T18:02:43.772Z,100936.30
2018-12-19T18:05:13.313Z,100932.94
2018-12-19T18:07:42.845Z,100936.09
2018-12-19T18:10:12.600Z,100933.66
2018-12-19T18:12:42.359Z,100943.94
2018-12-19T18:15:11.841Z,100944.33
2018-12-19T18:17:41.242Z,100946.21
2018-12-19T18:20:10.939Z,100941.16
2018-12-19T18:22:40.334Z,100945.53
2018-12-19T18:25:09.807Z,100947.69
2018-12-19T18:27:39.386Z,100941.73
2018-12-19T18:30:10.602Z,100944.70
2018-12-19T18:32:40.300Z,100943.58
2018-12-19T18:35:10.474Z,100945.83
2018-12-19T18:37:39.992Z,100949.73
2018-12-19T18:40:09.958Z,100953.95
2018-12-19T18:42:39.838Z,100959.78
2018-12-19T18:45:12.010Z,100959.09
2018-12-19T18:47:40.961Z,100963.98
2018-12-19T18:50:10.898Z,100960.61
2018-12-19T18:52:40.487Z,100961.24
2018-12-19T18:55:10.257Z,100961.06
2018-12-19T18:57:39.697Z,100968.06
2018-12-19T19:00:10.524Z,100971.37
2018-12-19T19:12:38.300Z,100967.16
2018-12-19T19:27:35.477Z,100961.06
2018-12-19T19:30:12.551Z,100957.98
2018-12-19T19:32:46.469Z,100954.52
2018-12-19T19:35:16.345Z,100952.37
2018-12-19T19:37:45.836Z,100949.11
2018-12-19T19:40:15.545Z,100954.63
2018-12-19T19:42:45.291Z,100956.48
2018-12-19T19:47:43.925Z,100959.95
2018-12-19T19:50:24.866Z,100966.58
2018-12-19T20:02:14.594Z,100959.11
2018-12-19T20:04:49.849Z,100960.61
2018-12-19T20:07:23.222Z,100957.05
2018-12-19T20:09:52.932Z,100962.20
2018-12-19T20:12:22.576Z,100958.27
2018-12-19T20:14:52.263Z,100966.22
2018-12-19T20:20:26.066Z,100973.13
2018-12-19T20:29:09.160Z,100952.94
2018-12-19T20:41:10.083Z,100965.47
2018-12-19T20:50:17.832Z,100961.16
2018-12-19T20:52:47.848Z,100960.59
2018-12-19T20:55:17.487Z,100958.63
2018-12-19T20:57:50.719Z,100960.04
2018-12-19T21:00:20.416Z,100965.19
2018-12-19T21:02:51.151Z,100964.44
2018-12-19T21:09:26.864Z,100957.98
2018-12-19T21:11:56.461Z,100966.03
2018-12-19T21:14:26.140Z,100966.69
2018-12-19T21:17:04.169Z,100966.39
2018-12-19T21:19:56.159Z,100967.14
2018-12-19T21:22:33.134Z,100964.53
2018-12-19T21:34:47.067Z,100973.90
